Time;durP1;ratioP1;P1;durP2;ratioP2;P2;SDS_P1;SDS_P2;PMS_P1;PMS_P2;Temp;Humidity;BMP_temperature;BMP_pressure;BME280_temperature;BME280_humidity;BME280_pressure;Samples;Min_cycle;Max_cycle;Signal;HPM_P1;HPM_P2
2022/05/04 00:00:28;;;;;;;11.68;2.63;;;8.40;99.90;;;;;;5027630;28;20036;-83
2022/05/04 00:02:54;;;;;;;13.27;2.67;;;8.40;99.90;;;;;;5049300;28;20068;-83
2022/05/04 00:05:19;;;;;;;12.43;2.50;;;8.40;99.90;;;;;;5040974;28;20037;-83
2022/05/04 00:07:45;;;;;;;13.25;2.97;;;8.40;99.90;;;;;;5026645;28;20041;-83
2022/05/04 00:10:13;;;;;;;10.93;2.60;;;8.40;99.90;;;;;;5058815;28;20045;-83
2022/05/04 00:12:39;;;;;;;13.98;3.08;;;8.50;99.90;;;;;;5056535;28;20079;-83
2022/05/04 00:15:05;;;;;;;10.63;2.40;;;8.60;99.90;;;;;;5049201;28;20037;-84
2022/05/04 00:17:31;;;;;;;10.77;2.50;;;8.50;99.90;;;;;;5040800;28;20070;-83
2022/05/04 00:19:57;;;;;;;10.52;2.50;;;8.50;99.90;;;;;;5042210;28;20078;-83
2022/05/04 00:22:25;;;;;;;12.02;2.90;;;8.50;99.90;;;;;;5062804;28;20064;-83
2022/05/04 00:24:51;;;;;;;11.82;3.05;;;8.50;99.90;;;;;;5044966;28;20072;-83
2022/05/04 00:27:16;;;;;;;10.55;2.60;;;8.50;99.90;;;;;;5042836;28;20064;-83
2022/05/04 00:29:43;;;;;;;9.65;2.47;;;8.50;99.90;;;;;;5048070;28;20052;-82
2022/05/04 00:32:11;;;;;;;11.13;2.67;;;8.50;99.90;;;;;;5048434;28;20102;-83
2022/05/04 00:34:37;;;;;;;10.25;2.67;;;8.50;99.90;;;;;;5047409;28;20492;-83
2022/05/04 00:37:03;;;;;;;10.73;2.80;;;9.80;99.90;;;;;;5046235;28;20036;-83
2022/05/04 00:39:29;;;;;;;10.30;2.60;;;8.50;99.90;;;;;;5057558;28;20067;-83
2022/05/04 00:42:08;;;;;;;13.00;2.75;;;8.50;99.90;;;;;;5024770;28;20116;-83
2022/05/04 00:44:34;;;;;;;19.65;3.42;;;8.50;99.90;;;;;;5058510;28;20044;-83
2022/05/04 00:47:00;;;;;;;14.00;2.80;;;8.40;99.90;;;;;;5031190;28;20043;-83
2022/05/04 00:49:26;;;;;;;9.95;2.47;;;8.70;99.90;;;;;;5051801;28;20047;-83
2022/05/04 00:51:52;;;;;;;12.07;2.53;;;8.40;99.90;;;;;;5029840;28;20041;-83
2022/05/04 00:54:19;;;;;;;12.55;2.90;;;8.40;99.90;;;;;;5031954;28;20032;-83
2022/05/04 00:56:44;;;;;;;12.73;2.78;;;8.40;99.90;;;;;;5028723;28;20044;-83
2022/05/04 00:59:10;;;;;;;12.52;3.17;;;8.40;99.90;;;;;;5028425;28;20422;-83
2022/05/04 01:01:37;;;;;;;10.43;2.78;;;8.40;99.90;;;;;;5027624;28;20037;-83
2022/05/04 01:04:03;;;;;;;11.60;2.53;;;8.40;99.90;;;;;;5038939;28;20096;-82
2022/05/04 01:06:29;;;;;;;10.13;2.65;;;8.40;99.90;;;;;;5026606;28;20119;-83
2022/05/04 01:08:54;;;;;;;13.82;2.75;;;8.70;99.90;;;;;;5038368;28;20110;-83
2022/05/04 01:11:21;;;;;;;11.00;2.60;;;8.40;99.90;;;;;;5033469;28;20059;-83
2022/05/04 01:14:04;;;;;;;11.90;2.88;;;8.40;99.90;;;;;;5046358;28;20040;-83
2022/05/04 01:16:31;;;;;;;10.75;2.90;;;8.40;99.90;;;;;;5038569;28;20067;-83
2022/05/04 01:18:57;;;;;;;9.90;2.58;;;8.50;99.90;;;;;;5039630;28;20047;-83
2022/05/04 01:21:22;;;;;;;8.90;2.53;;;8.40;99.90;;;;;;5058807;28;20032;-83
2022/05/04 01:23:49;;;;;;;13.88;3.15;;;8.40;99.90;;;;;;5026896;28;20560;-83
2022/05/04 01:26:16;;;;;;;10.25;2.50;;;8.40;99.90;;;;;;5039345;28;20032;-83
2022/05/04 01:28:43;;;;;;;11.75;2.92;;;8.40;99.90;;;;;;5052274;28;20094;-83
2022/05/04 01:31:09;;;;;;;11.80;2.70;;;8.30;99.90;;;;;;5038675;28;20532;-83
2022/05/04 01:33:35;;;;;;;11.32;3.08;;;8.30;99.90;;;;;;5054579;28;20044;-83
2022/05/04 01:36:01;;;;;;;13.10;3.38;;;8.30;99.90;;;;;;5043188;28;20432;-83
2022/05/04 01:38:27;;;;;;;11.70;2.70;;;8.30;99.90;;;;;;5059206;28;20163;-83
2022/05/04 01:40:52;;;;;;;11.60;2.67;;;8.30;99.90;;;;;;5049692;28;20068;-83
2022/05/04 01:43:18;;;;;;;11.68;2.50;;;8.30;99.90;;;;;;5050137;28;20134;-83
2022/05/04 01:45:44;;;;;;;11.57;2.90;;;8.30;99.90;;;;;;5027539;28;20028;-83
2022/05/04 01:48:10;;;;;;;10.45;2.65;;;8.30;99.90;;;;;;5033174;28;20048;-83
2022/05/04 01:50:35;;;;;;;13.90;2.83;;;8.30;99.90;;;;;;5027370;28;20024;-83
2022/05/04 01:53:01;;;;;;;9.80;2.53;;;8.30;99.90;;;;;;5030772;28;20421;-83
2022/05/04 01:55:28;;;;;;;9.25;2.38;;;8.30;99.90;;;;;;5049584;28;20039;-83
2022/05/04 01:57:54;;;;;;;12.77;3.00;;;9.40;99.90;;;;;;5059680;28;20047;-83
2022/05/04 02:00:20;;;;;;;10.95;2.72;;;8.30;99.90;;;;;;5054449;28;20032;-83
2022/05/04 02:02:46;;;;;;;14.68;2.92;;;8.30;99.90;;;;;;5047236;28;20555;-83
2022/05/04 02:05:12;;;;;;;13.32;2.90;;;8.30;99.90;;;;;;5062256;28;20424;-83
2022/05/04 02:07:38;;;;;;;11.60;3.03;;;8.30;99.90;;;;;;5048649;28;20044;-83
2022/05/04 02:10:05;;;;;;;13.40;2.60;;;8.30;99.90;;;;;;5028433;28;20044;-83
2022/05/04 02:12:34;;;;;;;11.27;2.80;;;8.30;99.90;;;;;;5032072;28;20037;-83
2022/05/04 02:15:00;;;;;;;11.40;2.58;;;8.30;99.90;;;;;;5045558;28;20475;-83
2022/05/04 02:17:26;;;;;;;11.55;2.78;;;8.30;99.90;;;;;;5041730;28;20053;-83
2022/05/04 02:19:52;;;;;;;14.38;2.95;;;8.30;99.90;;;;;;5056343;28;20037;-83
2022/05/04 02:22:18;;;;;;;10.43;2.80;;;8.30;99.90;;;;;;5042070;28;20047;-83
2022/05/04 02:24:44;;;;;;;11.82;2.67;;;8.30;99.90;;;;;;5046726;28;20043;-83
2022/05/04 02:27:09;;;;;;;13.63;2.85;;;8.30;99.90;;;;;;5051439;28;20143;-83
2022/05/04 02:29:35;;;;;;;11.95;3.05;;;8.70;99.90;;;;;;5028607;28;20629;-83
2022/05/04 02:32:01;;;;;;;12.27;2.75;;;8.30;99.90;;;;;;5032027;28;20091;-83
2022/05/04 02:34:27;;;;;;;12.00;3.25;;;8.30;99.90;;;;;;5032586;28;20490;-83
2022/05/04 02:39:36;;;;;;;10.93;2.60;;;8.30;99.90;;;;;;5045722;28;20144;-83
2022/05/04 02:42:02;;;;;;;10.63;3.00;;;8.30;99.90;;;;;;5036528;28;20551;-83
2022/05/04 02:44:28;;;;;;;13.70;3.05;;;8.30;99.90;;;;;;5030926;28;20028;-83
2022/05/04 02:46:54;;;;;;;9.95;2.47;;;8.30;99.90;;;;;;5065128;28;20093;-83
2022/05/04 02:49:19;;;;;;;12.70;2.90;;;8.30;99.90;;;;;;5043363;28;20559;-83
2022/05/04 02:51:45;;;;;;;11.85;3.30;;;8.70;99.90;;;;;;5018970;28;20147;-83
2022/05/04 02:54:11;;;;;;;11.88;2.70;;;8.30;99.90;;;;;;5046155;28;20334;-83
2022/05/04 02:56:37;;;;;;;9.82;2.80;;;9.40;99.90;;;;;;5042029;28;20041;-82
2022/05/04 02:59:02;;;;;;;12.93;2.60;;;8.30;99.90;;;;;;5055324;28;20037;-82
2022/05/04 03:04:13;;;;;;;10.20;2.70;;;8.30;99.90;;;;;;5066518;28;20041;-83
2022/05/04 03:06:40;;;;;;;11.73;2.70;;;8.30;99.90;;;;;;5061817;28;20097;-82
2022/05/04 03:09:08;;;;;;;10.95;2.63;;;8.30;99.90;;;;;;5082531;28;20044;-83
2022/05/04 03:14:20;;;;;;;11.77;3.10;;;8.30;99.90;;;;;;5079965;28;20057;-83
2022/05/04 03:16:47;;;;;;;11.38;2.30;;;8.20;99.90;;;;;;5066012;28;20049;-84
2022/05/04 03:19:13;;;;;;;13.13;2.65;;;9.00;99.90;;;;;;5076103;28;20071;-83
2022/05/04 03:21:39;;;;;;;12.38;2.60;;;8.20;99.90;;;;;;5057985;28;20036;-83
2022/05/04 03:24:05;;;;;;;10.73;2.22;;;8.20;99.90;;;;;;5060331;28;20516;-83
2022/05/04 03:26:31;;;;;;;11.05;2.47;;;8.20;99.90;;;;;;5040400;28;20716;-83
2022/05/04 03:28:57;;;;;;;8.63;2.40;;;8.20;99.90;;;;;;5036167;28;20037;-83
2022/05/04 03:31:23;;;;;;;11.55;2.75;;;8.20;99.90;;;;;;5054782;28;20510;-82
2022/05/04 03:33:49;;;;;;;12.82;2.40;;;8.20;99.90;;;;;;5037366;28;20041;-83
2022/05/04 03:36:14;;;;;;;9.70;2.50;;;8.20;99.90;;;;;;5057318;28;20041;-83
2022/05/04 03:38:40;;;;;;;11.25;2.65;;;8.40;99.90;;;;;;5065152;28;20037;-83
2022/05/04 03:41:06;;;;;;;11.90;2.55;;;8.20;99.90;;;;;;5044743;28;20036;-83
2022/05/04 03:43:32;;;;;;;12.02;2.42;;;8.20;99.90;;;;;;5035673;28;20045;-83
2022/05/04 03:46:21;;;;;;;14.07;2.75;;;8.60;99.90;;;;;;5017044;28;20102;-83
2022/05/04 03:48:49;;;;;;;10.90;2.55;;;8.20;99.90;;;;;;5053185;28;20047;-83
2022/05/04 03:51:18;;;;;;;11.38;2.30;;;8.40;99.90;;;;;;5031515;28;20128;-83
2022/05/04 03:53:45;;;;;;;11.52;2.75;;;9.50;99.90;;;;;;5049201;28;20464;-83
2022/05/04 03:56:11;;;;;;;9.65;2.28;;;8.20;99.90;;;;;;5040837;28;20493;-83
2022/05/04 03:58:37;;;;;;;11.80;2.40;;;8.20;99.90;;;;;;5042785;28;20028;-83
2022/05/04 04:01:04;;;;;;;9.93;2.28;;;8.20;99.90;;;;;;5042998;28;20097;-83
2022/05/04 04:03:30;;;;;;;13.07;2.67;;;8.20;99.90;;;;;;5050700;28;20501;-83
2022/05/04 04:05:55;;;;;;;8.73;2.10;;;9.00;99.90;;;;;;5052206;28;20036;-83
2022/05/04 04:08:21;;;;;;;12.00;2.30;;;8.20;99.90;;;;;;5043626;28;20493;-83
2022/05/04 04:10:49;;;;;;;9.40;2.15;;;8.20;99.90;;;;;;5020943;28;20120;-83
2022/05/04 04:13:15;;;;;;;9.70;2.40;;;8.20;99.90;;;;;;5048270;28;20064;-83
2022/05/04 04:15:41;;;;;;;10.90;2.40;;;8.20;99.90;;;;;;5041799;28;20557;-83
2022/05/04 04:18:07;;;;;;;9.30;2.28;;;8.20;99.90;;;;;;5031071;28;20033;-83
2022/05/04 04:23:17;;;;;;;9.38;2.38;;;8.40;99.90;;;;;;5037813;28;20041;-83
2022/05/04 04:25:43;;;;;;;11.63;2.63;;;8.20;99.90;;;;;;5048718;28;20418;-83
2022/05/04 04:28:09;;;;;;;10.18;2.40;;;8.20;99.90;;;;;;5039749;28;20036;-83
2022/05/04 04:30:37;;;;;;;9.32;2.45;;;8.20;99.90;;;;;;5060405;28;20498;-83
2022/05/04 04:33:04;;;;;;;9.88;2.50;;;8.70;99.90;;;;;;5053928;28;20098;-83
2022/05/04 04:35:29;;;;;;;10.55;2.33;;;8.20;99.90;;;;;;5023420;28;20037;-83
2022/05/04 04:37:55;;;;;;;11.48;2.53;;;8.20;99.90;;;;;;5054450;28;20036;-83
2022/05/04 04:40:21;;;;;;;11.70;2.63;;;8.20;99.90;;;;;;5039328;28;20279;-83
2022/05/04 04:42:46;;;;;;;8.57;2.10;;;8.20;99.90;;;;;;5044876;28;20044;-83
2022/05/04 04:45:12;;;;;;;7.88;2.28;;;8.20;99.90;;;;;;5031238;28;20485;-83
2022/05/04 04:47:38;;;;;;;9.32;2.03;;;8.20;99.90;;;;;;5032270;28;20272;-82
2022/05/04 04:50:04;;;;;;;11.90;2.25;;;8.20;99.90;;;;;;5030682;28;20090;-83
2022/05/04 04:52:29;;;;;;;11.40;2.80;;;8.30;99.90;;;;;;5042011;28;20041;-82
2022/05/04 04:54:55;;;;;;;10.93;2.35;;;8.30;99.90;;;;;;5032500;28;20028;-83
2022/05/04 04:57:21;;;;;;;11.18;2.40;;;8.40;99.90;;;;;;5041028;28;20457;-83
2022/05/04 04:59:49;;;;;;;11.35;2.75;;;8.30;99.90;;;;;;5026270;28;20115;-83
2022/05/04 05:02:15;;;;;;;10.75;2.60;;;8.30;99.90;;;;;;5025231;28;20048;-83
2022/05/04 05:04:41;;;;;;;11.38;2.42;;;8.30;99.90;;;;;;5036990;28;20063;-83
2022/05/04 05:07:07;;;;;;;8.88;2.50;;;8.30;99.90;;;;;;5031562;28;20405;-83
2022/05/04 05:09:32;;;;;;;10.30;2.47;;;8.30;99.90;;;;;;5059852;28;20033;-83
2022/05/04 05:11:58;;;;;;;13.70;2.70;;;8.30;99.90;;;;;;5052916;28;20045;-83
2022/05/04 05:17:08;;;;;;;8.55;2.50;;;8.40;99.90;;;;;;5041745;28;20277;-83
2022/05/04 05:19:34;;;;;;;10.95;2.75;;;8.40;99.90;;;;;;5036671;28;20267;-83
2022/05/04 05:21:59;;;;;;;14.02;2.85;;;8.50;99.90;;;;;;5033342;28;20052;-83
2022/05/04 05:24:25;;;;;;;9.10;2.88;;;8.40;99.90;;;;;;5047025;28;20103;-83
2022/05/04 05:26:51;;;;;;;11.90;2.60;;;8.40;99.90;;;;;;5043376;28;20037;-83
2022/05/04 05:29:17;;;;;;;8.93;2.28;;;8.40;99.90;;;;;;5045037;28;20060;-82
2022/05/04 05:31:42;;;;;;;11.23;2.63;;;8.40;99.90;;;;;;5021033;28;20132;-83
2022/05/04 05:34:08;;;;;;;12.18;2.15;;;8.40;99.90;;;;;;5045838;28;20041;-83
2022/05/04 05:36:34;;;;;;;9.18;2.35;;;9.20;99.90;;;;;;5010493;28;20029;-83
2022/05/04 05:39:00;;;;;;;10.07;2.67;;;8.40;99.90;;;;;;5032070;28;20478;-82
2022/05/04 05:41:25;;;;;;;9.68;2.40;;;8.40;99.90;;;;;;5050836;28;20037;-82
2022/05/04 05:43:52;;;;;;;8.35;1.98;;;8.50;99.90;;;;;;5051901;28;20037;-83
2022/05/04 05:46:18;;;;;;;10.57;2.22;;;8.50;99.90;;;;;;5047787;28;20291;-82
2022/05/04 05:48:47;;;;;;;9.10;2.55;;;8.50;99.90;;;;;;5039553;28;20049;-83
2022/05/04 05:51:13;;;;;;;10.90;2.40;;;9.60;99.90;;;;;;5052752;28;20048;-82
2022/05/04 05:53:39;;;;;;;12.30;2.72;;;8.50;99.90;;;;;;5057769;28;20045;-82
2022/05/04 05:56:05;;;;;;;11.00;2.40;;;8.50;99.90;;;;;;5035915;28;20466;-82
2022/05/04 05:58:30;;;;;;;9.77;2.53;;;8.90;99.90;;;;;;5033852;28;20036;-82
2022/05/04 06:00:56;;;;;;;11.98;2.50;;;8.50;99.90;;;;;;5037402;28;20083;-82
2022/05/04 06:03:22;;;;;;;10.65;2.60;;;8.50;99.90;;;;;;5035337;28;20067;-82
2022/05/04 06:05:48;;;;;;;10.27;2.78;;;8.50;99.90;;;;;;5020728;28;20136;-82
2022/05/04 06:08:14;;;;;;;11.32;2.20;;;8.60;99.90;;;;;;5042558;28;20044;-83
2022/05/04 06:10:39;;;;;;;7.95;2.20;;;8.60;99.90;;;;;;5046467;28;20041;-83
2022/05/04 06:13:06;;;;;;;10.10;2.30;;;8.60;99.90;;;;;;5017466;28;20631;-83
2022/05/04 06:15:32;;;;;;;12.18;2.55;;;8.60;99.90;;;;;;5045160;28;20037;-83
2022/05/04 06:17:58;;;;;;;11.40;2.38;;;8.70;99.90;;;;;;5037854;28;20663;-83
2022/05/04 06:20:24;;;;;;;10.85;2.22;;;8.70;99.90;;;;;;5061765;28;21169;-83
2022/05/04 06:22:50;;;;;;;11.55;2.28;;;8.80;99.90;;;;;;5026409;28;20036;-83
2022/05/04 06:25:16;;;;;;;8.38;2.17;;;8.80;99.90;;;;;;5023140;28;20101;-83
2022/05/04 06:27:42;;;;;;;9.07;2.22;;;8.80;99.90;;;;;;5023718;28;20044;-81
2022/05/04 06:35:39;;;;;;;11.15;2.30;;;8.80;99.90;;;;;;5041796;28;20040;-82
2022/05/04 06:38:05;;;;;;;9.50;2.13;;;8.70;99.90;;;;;;5041767;28;20040;-82
2022/05/04 06:40:31;;;;;;;7.70;2.25;;;9.60;99.90;;;;;;5023688;28;20033;-82
2022/05/04 06:42:57;;;;;;;8.55;2.15;;;8.90;99.90;;;;;;5020050;28;20041;-82
2022/05/04 06:45:23;;;;;;;8.57;2.35;;;9.00;99.90;;;;;;5040263;28;20482;-82
2022/05/04 06:47:49;;;;;;;11.38;2.25;;;8.90;99.90;;;;;;5047657;28;20199;-82
2022/05/04 06:50:15;;;;;;;9.38;2.42;;;9.00;99.90;;;;;;5054378;28;20070;-82
2022/05/04 06:52:41;;;;;;;10.93;2.38;;;9.00;99.90;;;;;;5040948;28;20048;-81
2022/05/04 06:55:08;;;;;;;8.40;2.38;;;9.10;99.90;;;;;;5023869;28;20048;-82
2022/05/04 06:57:35;;;;;;;7.75;2.17;;;8.20;99.90;;;;;;5049494;28;20048;-82
2022/05/04 07:00:04;;;;;;;9.63;2.20;;;9.20;99.90;;;;;;5009207;28;20127;-81
2022/05/04 07:02:32;;;;;;;8.95;2.35;;;9.30;99.90;;;;;;5027299;28;20066;-81
2022/05/04 07:04:58;;;;;;;12.63;1.98;;;9.40;99.90;;;;;;5027474;28;20492;-82
2022/05/04 07:07:24;;;;;;;8.25;2.00;;;9.40;99.90;;;;;;5022561;28;20044;-83
2022/05/04 07:09:50;;;;;;;11.85;2.58;;;9.50;99.90;;;;;;5039318;28;20041;-83
2022/05/04 07:12:15;;;;;;;9.65;2.05;;;9.60;99.90;;;;;;5028699;28;20049;-83
2022/05/04 07:14:41;;;;;;;11.35;2.40;;;9.80;99.90;;;;;;5021866;28;20071;-83
2022/05/04 07:17:07;;;;;;;13.80;3.00;;;9.90;99.90;;;;;;5056264;28;20094;-82
2022/05/04 07:19:32;;;;;;;13.32;2.40;;;9.90;99.90;;;;;;5044618;28;20035;-82
2022/05/04 07:21:58;;;;;;;11.88;2.38;;;10.00;99.90;;;;;;5032310;28;20035;-82
2022/05/04 07:24:24;;;;;;;11.00;2.72;;;10.10;99.90;;;;;;5040848;28;20037;-83
2022/05/04 07:26:49;;;;;;;9.57;2.60;;;10.10;99.90;;;;;;5044522;28;20679;-82
2022/05/04 07:29:15;;;;;;;12.20;2.65;;;10.20;99.90;;;;;;5031693;28;20123;-82
2022/05/04 07:31:44;;;;;;;9.35;2.38;;;10.30;99.90;;;;;;5024544;28;20241;-83
2022/05/04 07:34:11;;;;;;;8.00;2.15;;;10.40;99.90;;;;;;5039738;28;20116;-83
2022/05/04 07:36:36;;;;;;;8.68;2.40;;;11.20;99.90;;;;;;5043428;28;20066;-83
2022/05/04 07:39:02;;;;;;;6.53;2.08;;;10.70;99.90;;;;;;5026224;28;20036;-83
2022/05/04 07:44:12;;;;;;;8.40;2.03;;;10.80;99.90;;;;;;5044953;28;20131;-83
2022/05/04 07:46:38;;;;;;;8.70;2.10;;;10.80;99.90;;;;;;5032150;28;20123;-82
2022/05/04 07:49:05;;;;;;;11.68;2.10;;;10.80;99.90;;;;;;5041258;28;20090;-83
2022/05/04 07:51:31;;;;;;;7.20;1.80;;;10.70;99.90;;;;;;5039452;28;20469;-83
2022/05/04 07:53:56;;;;;;;11.38;2.53;;;10.70;99.90;;;;;;5029937;28;20129;-83
2022/05/04 07:56:22;;;;;;;8.82;2.13;;;10.80;99.90;;;;;;5026449;28;20040;-82
2022/05/04 07:58:48;;;;;;;10.57;2.60;;;10.80;99.90;;;;;;5041332;28;20123;-82
2022/05/04 08:06:42;;;;;;;9.15;2.20;;;10.60;99.90;;;;;;5061665;28;20123;-82
2022/05/04 08:09:08;;;;;;;9.68;2.00;;;10.70;99.90;;;;;;5052166;28;20123;-83
2022/05/04 08:11:34;;;;;;;11.57;2.40;;;10.70;99.90;;;;;;5032146;28;20049;-83
2022/05/04 08:14:00;;;;;;;9.23;2.03;;;10.70;99.90;;;;;;5057795;28;20111;-83
2022/05/04 08:16:25;;;;;;;7.90;2.00;;;10.70;99.90;;;;;;5027471;28;20041;-82
2022/05/04 08:18:51;;;;;;;10.25;1.92;;;10.80;99.90;;;;;;5048293;28;20040;-82
2022/05/04 08:21:17;;;;;;;10.32;2.20;;;10.70;99.90;;;;;;5040688;28;20393;-82
2022/05/04 08:23:42;;;;;;;9.82;2.30;;;10.70;99.90;;;;;;5042734;28;20098;-82
2022/05/04 08:26:10;;;;;;;10.65;2.38;;;10.60;99.90;;;;;;5026573;28;20195;-82
2022/05/04 08:28:35;;;;;;;7.25;2.08;;;10.60;99.90;;;;;;5020849;28;20043;-82
2022/05/04 08:31:01;;;;;;;15.77;2.67;;;10.50;99.90;;;;;;5041697;28;20040;-82
2022/05/04 08:33:27;;;;;;;11.23;2.30;;;10.60;99.90;;;;;;5041854;28;20404;-82
2022/05/04 08:35:52;;;;;;;9.88;2.20;;;10.70;99.90;;;;;;5012860;28;20481;-83
2022/05/04 08:38:18;;;;;;;12.20;2.17;;;10.80;99.90;;;;;;5028930;28;20542;-82
2022/05/04 08:40:44;;;;;;;11.00;2.30;;;11.00;99.90;;;;;;5026925;28;20033;-82
2022/05/04 08:43:13;;;;;;;13.00;2.38;;;11.10;99.90;;;;;;5043004;28;20047;-82
2022/05/04 08:45:40;;;;;;;10.70;2.40;;;11.10;99.90;;;;;;5050073;28;20037;-81
2022/05/04 08:48:08;;;;;;;8.82;2.00;;;11.20;99.90;;;;;;5026840;28;20501;-82
2022/05/04 08:50:35;;;;;;;7.28;1.92;;;11.30;99.90;;;;;;5046874;28;20140;-83
2022/05/04 08:53:05;;;;;;;11.18;2.70;;;11.20;99.90;;;;;;5058075;28;20044;-83
2022/05/04 08:55:31;;;;;;;9.40;2.05;;;11.20;99.90;;;;;;5042271;28;20044;-83
2022/05/04 08:57:57;;;;;;;9.73;2.50;;;11.30;99.90;;;;;;5031464;28;20102;-83
2022/05/04 09:00:24;;;;;;;8.60;2.45;;;11.40;99.90;;;;;;5039794;28;20033;-83
2022/05/04 09:02:50;;;;;;;10.45;2.13;;;11.50;99.90;;;;;;5044866;28;20580;-83
2022/05/04 09:05:19;;;;;;;8.20;2.45;;;11.50;99.90;;;;;;5038122;28;20550;-83
2022/05/04 09:07:49;;;;;;;11.38;2.63;;;11.30;99.90;;;;;;5060050;28;20032;-84
2022/05/04 09:10:21;;;;;;;11.32;2.60;;;11.30;99.90;;;;;;5047298;28;20033;-84
2022/05/04 09:12:49;;;;;;;12.40;2.60;;;11.50;99.90;;;;;;5033639;28;20049;-83
2022/05/04 09:15:21;;;;;;;9.25;2.10;;;11.70;99.90;;;;;;5032729;28;20072;-83
2022/05/04 09:17:54;;;;;;;12.43;2.85;;;11.80;99.90;;;;;;5045869;28;20047;-83
2022/05/04 09:23:11;;;;;;;9.07;2.05;;;12.00;99.90;;;;;;5055998;28;20048;-84
2022/05/04 09:25:37;;;;;;;12.02;2.60;;;12.00;99.90;;;;;;5048216;28;20126;-84
2022/05/04 09:28:02;;;;;;;9.75;2.20;;;11.90;99.90;;;;;;5031058;28;20521;-83
2022/05/04 09:30:28;;;;;;;9.10;2.35;;;11.70;99.90;;;;;;5023232;28;20424;-83
2022/05/04 09:32:54;;;;;;;11.40;2.35;;;11.60;99.90;;;;;;5046947;28;20036;-83
2022/05/04 09:35:20;;;;;;;9.60;2.47;;;11.80;99.90;;;;;;5057437;28;20044;-83
2022/05/04 09:46:04;;;;;;;10.27;2.42;;;12.10;99.90;;;;;;5054710;28;20127;-84
2022/05/04 09:48:32;;;;;;;8.43;2.50;;;12.00;99.90;;;;;;5035518;28;20405;-84
2022/05/04 09:51:03;;;;;;;10.73;2.55;;;12.10;99.90;;;;;;5030472;28;20079;-83
2022/05/04 09:53:28;;;;;;;10.20;2.47;;;12.10;99.90;;;;;;5039156;28;20033;-83
2022/05/04 09:55:58;;;;;;;13.38;2.53;;;12.30;99.90;;;;;;5026864;28;20035;-83
2022/05/04 09:58:26;;;;;;;9.52;2.45;;;12.30;99.90;;;;;;5039226;28;20428;-83
2022/05/04 10:00:53;;;;;;;11.10;2.60;;;12.30;99.90;;;;;;5043005;28;20500;-83
2022/05/04 10:03:20;;;;;;;9.85;2.40;;;12.40;99.90;;;;;;5048552;28;20055;-84
2022/05/04 10:05:46;;;;;;;13.05;2.75;;;12.30;99.90;;;;;;5059340;28;20043;-84
2022/05/04 10:08:13;;;;;;;10.30;2.60;;;12.40;99.90;;;;;;5042792;28;20040;-84
2022/05/04 10:10:40;;;;;;;8.65;2.47;;;12.30;99.90;;;;;;5060644;28;20099;-84
2022/05/04 10:13:08;;;;;;;9.10;2.40;;;12.30;99.90;;;;;;5043104;28;20426;-85
2022/05/04 10:15:36;;;;;;;11.57;2.80;;;12.40;99.90;;;;;;5045895;28;20037;-84
2022/05/04 10:18:14;;;;;;;9.45;2.53;;;12.60;99.90;;;;;;5068581;28;20041;-85
2022/05/04 10:21:05;;;;;;;9.82;2.47;;;12.70;99.90;;;;;;5051697;28;20041;-84
2022/05/04 10:23:37;;;;;;;10.23;2.58;;;12.90;99.90;;;;;;5059970;28;20080;-84
2022/05/04 10:26:04;;;;;;;11.02;2.70;;;13.10;99.90;;;;;;5066603;28;20443;-84
2022/05/04 10:28:36;;;;;;;11.20;2.53;;;13.20;99.90;;;;;;5039048;28;20045;-84
2022/05/04 10:31:10;;;;;;;8.25;2.20;;;13.10;99.90;;;;;;5044142;28;20113;-84
2022/05/04 10:33:37;;;;;;;9.05;2.60;;;13.10;99.90;;;;;;5041450;28;20036;-84
2022/05/04 10:36:17;;;;;;;12.13;2.67;;;13.30;99.90;;;;;;5058561;28;20068;-84
2022/05/04 10:38:51;;;;;;;10.07;2.67;;;13.70;99.90;;;;;;5049348;28;20036;-84
2022/05/04 10:41:34;;;;;;;10.80;2.88;;;13.90;99.90;;;;;;5043985;28;20047;-84
2022/05/04 10:43:59;;;;;;;8.55;2.50;;;14.00;99.90;;;;;;5045537;28;20049;-85
2022/05/04 10:46:25;;;;;;;9.75;2.65;;;14.30;99.90;;;;;;5025852;28;20445;-85
2022/05/04 10:48:54;;;;;;;11.60;2.63;;;14.60;99.90;;;;;;5027674;28;20028;-85
2022/05/04 10:51:21;;;;;;;11.68;2.47;;;14.70;99.90;;;;;;5047351;28;20098;-85
2022/05/04 10:54:09;;;;;;;13.10;2.67;;;14.90;99.90;;;;;;5028564;28;20215;-85
2022/05/04 10:56:55;;;;;;;11.30;2.53;;;15.10;99.90;;;;;;5048877;28;20397;-84
2022/05/04 10:59:32;;;;;;;10.05;2.38;;;15.30;99.90;;;;;;5059551;28;20037;-84
2022/05/04 11:02:05;;;;;;;10.38;2.50;;;15.40;99.90;;;;;;5045378;28;20032;-85
2022/05/04 11:04:33;;;;;;;11.30;2.30;;;15.20;99.90;;;;;;5053970;28;20044;-83
2022/05/04 11:06:59;;;;;;;10.70;2.55;;;15.10;99.90;;;;;;5055265;28;20506;-84
2022/05/04 11:09:29;;;;;;;11.07;2.60;;;15.10;99.90;;;;;;5046146;28;20051;-84
2022/05/04 11:12:04;;;;;;;11.60;2.40;;;14.50;99.90;;;;;;5066722;28;20061;-84
2022/05/04 11:14:32;;;;;;;8.07;2.13;;;14.40;99.90;;;;;;5051443;28;20053;-84
2022/05/04 11:16:59;;;;;;;8.13;2.17;;;14.50;99.90;;;;;;5031023;28;20033;-84
2022/05/04 11:19:30;;;;;;;9.93;2.65;;;14.70;99.90;;;;;;5065954;28;20036;-84
2022/05/04 11:21:57;;;;;;;10.45;2.50;;;14.70;99.90;;;;;;5067738;28;20118;-83
2022/05/04 11:24:26;;;;;;;9.40;2.53;;;14.90;99.90;;;;;;5046378;28;20046;-82
2022/05/04 11:26:52;;;;;;;11.10;2.50;;;15.20;99.90;;;;;;5049783;28;20041;-84
2022/05/04 11:29:28;;;;;;;10.13;2.70;;;15.40;99.90;;;;;;5047932;28;20470;-83
2022/05/04 11:31:57;;;;;;;10.70;2.97;;;15.30;99.90;;;;;;5030389;28;20036;-85
2022/05/04 11:34:27;;;;;;;11.98;2.50;;;15.20;99.90;;;;;;5038299;28;20048;-84
2022/05/04 11:36:56;;;;;;;12.07;3.08;;;15.20;99.90;;;;;;5060937;28;20035;-84
2022/05/04 11:39:29;;;;;;;9.75;2.55;;;15.20;99.90;;;;;;5062814;28;20551;-84
2022/05/04 11:41:56;;;;;;;;;;;15.10;99.90;;;;;;5030296;28;20029;-84
2022/05/04 11:44:24;;;;;;;9.55;2.30;;;14.90;99.90;;;;;;5051482;28;19923;-83
2022/05/04 11:46:55;;;;;;;9.18;2.60;;;15.00;99.90;;;;;;5040559;28;20061;-84
2022/05/04 11:49:23;;;;;;;11.82;2.60;;;15.10;99.90;;;;;;5040599;28;20074;-83
2022/05/04 11:51:50;;;;;;;14.32;2.97;;;15.10;99.90;;;;;;5057829;28;20533;-84
2022/05/04 11:54:17;;;;;;;9.05;2.33;;;15.10;99.90;;;;;;5054786;28;20183;-84
2022/05/04 11:56:43;;;;;;;8.57;2.50;;;14.90;99.80;;;;;;5057727;28;20528;-84
2022/05/04 11:59:09;;;;;;;9.50;2.45;;;14.80;99.50;;;;;;5033938;28;20447;-83
2022/05/04 12:01:36;;;;;;;10.55;2.30;;;14.90;99.70;;;;;;5009679;28;20044;-84
2022/05/04 12:04:04;;;;;;;9.15;2.40;;;15.00;97.60;;;;;;5047724;28;20447;-83
2022/05/04 12:06:31;;;;;;;10.25;2.83;;;14.60;99.30;;;;;;5047125;28;20136;-84
2022/05/04 12:08:57;;;;;;;10.82;2.80;;;14.50;99.10;;;;;;5060133;28;20079;-83
2022/05/04 12:11:24;;;;;;;10.40;3.00;;;14.80;99.90;;;;;;5032762;28;20106;-84
2022/05/04 12:13:50;;;;;;;8.32;2.35;;;14.70;99.90;;;;;;5058877;28;20090;-84
2022/05/04 12:16:16;;;;;;;8.25;2.20;;;14.80;99.90;;;;;;5051471;28;20037;-84
2022/05/04 12:18:43;;;;;;;10.13;2.63;;;15.10;99.90;;;;;;5059163;28;20081;-85
2022/05/04 12:21:12;;;;;;;8.73;2.08;;;15.40;99.90;;;;;;5029893;28;20445;-85
2022/05/04 12:23:40;;;;;;;10.18;2.20;;;15.70;99.90;;;;;;5048072;28;20649;-84
2022/05/04 12:26:06;;;;;;;8.95;2.47;;;15.80;99.90;;;;;;5060858;28;20043;-84
2022/05/04 12:28:33;;;;;;;9.80;2.47;;;16.00;99.90;;;;;;5030803;28;20120;-84
2022/05/04 12:33:44;;;;;;;8.48;2.40;;;16.40;99.90;;;;;;5037333;28;20508;-84
2022/05/04 12:36:12;;;;;;;10.90;2.95;;;16.20;99.50;;;;;;5029272;28;20033;-84
2022/05/04 12:38:39;;;;;;;11.13;2.72;;;16.80;99.90;;;;;;5020840;28;20029;-85
2022/05/04 12:41:07;;;;;;;7.22;2.30;;;16.10;99.90;;;;;;5052369;28;20465;-84
2022/05/04 12:43:35;;;;;;;9.55;2.63;;;16.00;98.90;;;;;;5041900;28;20033;-84
2022/05/04 12:46:01;;;;;;;9.88;2.75;;;15.90;98.50;;;;;;5049658;28;20412;-84
2022/05/04 12:48:28;;;;;;;10.40;2.55;;;16.10;98.70;;;;;;5033039;28;20106;-83
2022/05/04 12:50:55;;;;;;;8.98;2.47;;;16.20;99.90;;;;;;5031342;28;20036;-84
2022/05/04 12:53:24;;;;;;;12.50;2.80;;;16.20;98.70;;;;;;5061905;28;20420;-83
2022/05/04 12:58:35;;;;;;;10.90;2.53;;;16.00;98.10;;;;;;5045445;28;20033;-84
2022/05/04 13:01:02;;;;;;;11.18;2.67;;;15.80;98.30;;;;;;5031304;28;20082;-84
2022/05/04 13:03:27;;;;;;;11.68;2.72;;;15.40;97.50;;;;;;5043496;28;20659;-84
2022/05/04 13:05:53;;;;;;;10.85;2.80;;;15.30;97.20;;;;;;5036629;28;20228;-84
2022/05/04 13:08:19;;;;;;;13.73;2.60;;;15.20;97.20;;;;;;5044015;28;20037;-85
2022/05/04 13:10:47;;;;;;;12.35;2.80;;;15.30;97.40;;;;;;5033847;28;20048;-84
2022/05/04 13:13:14;;;;;;;12.48;2.72;;;15.40;97.50;;;;;;5069775;28;20090;-85
2022/05/04 13:15:39;;;;;;;10.32;2.50;;;15.40;97.00;;;;;;5016490;28;20320;-85
2022/05/04 13:18:07;;;;;;;10.20;2.85;;;15.50;96.70;;;;;;5056752;28;20686;-84
2022/05/04 13:20:33;;;;;;;12.40;2.63;;;15.60;96.80;;;;;;5041333;28;20029;-85
2022/05/04 13:22:59;;;;;;;11.77;2.90;;;15.30;95.90;;;;;;5053766;28;20559;-85
2022/05/04 13:25:25;;;;;;;10.95;2.97;;;15.40;95.80;;;;;;5030933;28;20045;-84
2022/05/04 13:27:50;;;;;;;10.30;2.53;;;15.40;95.50;;;;;;5046366;28;20072;-83